createdAt,value
2022-08-21T00:01:56.134Z,16.07
2022-08-21T00:04:29.250Z,15.88
2022-08-21T00:07:00.779Z,15.72
2022-08-21T00:09:28.758Z,15.61
2022-08-21T00:11:56.481Z,15.51
2022-08-21T00:14:24.519Z,16.03
2022-08-21T00:16:52.360Z,18.36
2022-08-21T00:19:25.885Z,19.59
2022-08-21T00:21:55.628Z,18.90
2022-08-21T00:24:25.215Z,17.98
2022-08-21T00:26:53.402Z,17.28
2022-08-21T00:29:23.864Z,16.81
2022-08-21T00:31:51.567Z,16.45
2022-08-21T00:34:19.284Z,16.14
2022-08-21T00:36:47.374Z,15.87
2022-08-21T00:39:15.525Z,16.08
2022-08-21T00:41:43.956Z,18.04
2022-08-21T00:44:14.941Z,19.60
2022-08-21T00:46:45.060Z,20.12
2022-08-21T00:49:14.427Z,19.17
2022-08-21T00:51:51.244Z,18.14
2022-08-21T00:54:25.672Z,17.36
2022-08-21T00:57:00.621Z,16.85
2022-08-21T00:59:35.745Z,16.40
2022-08-21T01:02:08.259Z,15.99
2022-08-21T01:04:37.200Z,16.16
2022-08-21T01:07:06.477Z,17.77
2022-08-21T01:09:34.624Z,18.23
2022-08-21T01:12:03.252Z,17.54
2022-08-21T01:14:32.189Z,16.84
2022-08-21T01:17:04.106Z,16.32
2022-08-21T01:19:32.127Z,16.30
2022-08-21T01:22:00.781Z,17.73
2022-08-21T01:24:29.433Z,19.17
2022-08-21T01:26:57.837Z,19.59
2022-08-21T01:29:59.756Z,18.80
2022-08-21T01:32:27.881Z,17.58
2022-08-21T01:34:55.618Z,16.85
2022-08-21T01:37:23.855Z,16.34
2022-08-21T01:39:51.723Z,15.94
2022-08-21T01:42:19.419Z,15.97
2022-08-21T01:44:48.339Z,17.52
2022-08-21T01:47:18.257Z,18.94
2022-08-21T01:49:46.602Z,19.53
2022-08-21T01:52:14.622Z,18.68
2022-08-21T01:54:43.042Z,17.69
2022-08-21T01:57:12.552Z,16.96
2022-08-21T01:59:41.267Z,16.40
2022-08-21T02:02:09.045Z,15.99
2022-08-21T02:04:36.876Z,16.08
2022-08-21T02:07:07.090Z,17.52
2022-08-21T02:09:38.181Z,18.91
2022-08-21T02:12:11.795Z,19.39
2022-08-21T02:14:39.742Z,18.39
2022-08-21T02:17:09.850Z,17.31
2022-08-21T02:19:40.603Z,16.52
2022-08-21T02:22:12.707Z,15.92
2022-08-21T02:24:54.784Z,15.91
2022-08-21T02:27:26.524Z,17.60
2022-08-21T02:29:58.072Z,18.39
2022-08-21T02:32:26.824Z,17.67
2022-08-21T02:34:55.784Z,16.85
2022-08-21T02:37:25.419Z,16.16
2022-08-21T02:39:53.263Z,16.28
2022-08-21T02:42:21.396Z,17.57
2022-08-21T02:44:49.143Z,18.80
2022-08-21T02:47:16.831Z,19.29
2022-08-21T02:49:44.740Z,18.41
2022-08-21T02:52:12.960Z,17.44
2022-08-21T02:54:40.736Z,16.67
2022-08-21T02:57:09.244Z,16.09
2022-08-21T02:59:37.269Z,15.98
2022-08-21T03:02:05.201Z,17.40
2022-08-21T03:04:33.427Z,18.70
2022-08-21T03:07:01.649Z,19.26
2022-08-21T03:09:30.009Z,18.34
2022-08-21T03:11:58.703Z,17.33
2022-08-21T03:14:26.626Z,16.64
2022-08-21T03:16:54.338Z,16.44
2022-08-21T03:19:22.016Z,17.80
2022-08-21T03:21:49.905Z,19.12
2022-08-21T03:24:18.094Z,19.51
2022-08-21T03:26:49.244Z,18.53
2022-08-21T03:29:17.753Z,17.58
2022-08-21T03:31:45.641Z,16.91
2022-08-21T03:34:13.366Z,16.41
2022-08-21T03:36:41.520Z,16.35
2022-08-21T03:39:09.311Z,17.78
2022-08-21T03:41:37.359Z,19.12
2022-08-21T03:44:05.744Z,19.63
2022-08-21T03:46:33.476Z,18.72
2022-08-21T03:49:01.953Z,17.68
2022-08-21T03:51:29.778Z,16.89
2022-08-21T03:53:57.433Z,16.44
2022-08-21T03:56:25.117Z,17.57
2022-08-21T03:58:52.997Z,18.98
2022-08-21T04:01:20.811Z,19.58
2022-08-21T04:03:48.926Z,18.69
2022-08-21T04:06:16.857Z,17.69
2022-08-21T04:08:44.712Z,16.96
2022-08-21T04:11:13.740Z,16.34
2022-08-21T04:13:44.377Z,16.30
2022-08-21T04:16:14.453Z,17.70
2022-08-21T04:18:42.677Z,19.01
2022-08-21T04:21:13.498Z,19.75
2022-08-21T04:23:41.901Z,19.42
2022-08-21T04:26:10.337Z,18.26
2022-08-21T04:28:38.053Z,17.33
2022-08-21T04:31:06.448Z,16.69
2022-08-21T04:33:34.243Z,16.60
2022-08-21T04:36:02.687Z,18.06
2022-08-21T04:38:36.629Z,19.49
2022-08-21T04:41:07.524Z,19.98
2022-08-21T04:43:36.205Z,19.02
2022-08-21T04:46:04.382Z,17.98
2022-08-21T04:48:34.029Z,17.19
2022-08-21T04:51:08.888Z,16.52
2022-08-21T04:53:39.831Z,16.60
2022-08-21T04:56:14.081Z,18.12
2022-08-21T04:58:43.749Z,19.33
2022-08-21T05:01:20.433Z,19.76
2022-08-21T05:03:51.762Z,18.74
2022-08-21T05:06:23.253Z,17.72
2022-08-21T05:09:01.662Z,16.99
2022-08-21T05:11:32.728Z,16.52
2022-08-21T05:14:00.803Z,17.49
2022-08-21T05:16:34.321Z,19.03
2022-08-21T05:19:07.678Z,19.78
2022-08-21T05:21:39.851Z,18.95
2022-08-21T05:24:08.502Z,17.93
2022-08-21T05:26:45.496Z,17.25
2022-08-21T05:29:18.281Z,17.21
2022-08-21T05:31:48.647Z,18.68
2022-08-21T05:34:21.480Z,19.91
2022-08-21T05:36:49.346Z,20.44
2022-08-21T05:39:17.842Z,19.65
2022-08-21T05:41:45.683Z,18.66
2022-08-21T05:44:13.400Z,17.85
2022-08-21T05:46:41.676Z,17.60
2022-08-21T05:49:09.618Z,18.88
2022-08-21T05:51:38.250Z,20.14
2022-08-21T05:54:06.213Z,20.65
2022-08-21T05:56:34.739Z,19.86
2022-08-21T05:59:02.423Z,18.82
2022-08-21T06:01:36.899Z,18.02
2022-08-21T06:04:05.381Z,17.93
2022-08-21T06:06:33.656Z,19.38
2022-08-21T06:09:02.021Z,20.54
2022-08-21T06:11:29.731Z,21.05
2022-08-21T06:13:59.132Z,20.28
2022-08-21T06:16:28.264Z,19.37
2022-08-21T06:19:00.739Z,18.70
2022-08-21T06:21:30.950Z,18.20
2022-08-21T06:23:59.244Z,18.19
2022-08-21T06:26:29.106Z,19.58
2022-08-21T06:28:56.867Z,20.76
2022-08-21T06:31:27.701Z,20.55
2022-08-21T06:33:56.781Z,19.66
2022-08-21T06:36:25.776Z,18.93
2022-08-21T06:38:53.748Z,19.71
2022-08-21T06:41:23.943Z,21.08
2022-08-21T06:43:52.434Z,21.61
2022-08-21T06:46:21.066Z,20.92
2022-08-21T06:48:49.045Z,20.15
2022-08-21T06:51:16.871Z,19.63
2022-08-21T06:53:44.761Z,20.17
2022-08-21T06:56:13.091Z,21.70
2022-08-21T06:58:41.157Z,22.53
2022-08-21T07:01:09.201Z,21.86
2022-08-21T07:03:41.808Z,21.08
2022-08-21T07:06:12.156Z,20.47
2022-08-21T07:08:40.323Z,20.05
2022-08-21T07:11:21.215Z,20.14
2022-08-21T07:13:52.181Z,21.73
2022-08-21T07:16:22.375Z,22.64
2022-08-21T07:18:50.873Z,22.06
2022-08-21T07:21:23.879Z,21.26
2022-08-21T07:23:55.095Z,20.65
2022-08-21T07:26:25.347Z,20.23
2022-08-21T07:28:54.342Z,19.89
2022-08-21T07:31:27.247Z,19.66
2022-08-21T07:33:55.672Z,20.04
2022-08-21T07:36:25.528Z,21.55
2022-08-21T07:38:53.537Z,22.36
2022-08-21T07:41:28.648Z,21.73
2022-08-21T07:43:58.747Z,20.87
2022-08-21T07:46:28.450Z,20.42
2022-08-21T07:48:56.233Z,20.10
2022-08-21T07:51:28.879Z,19.84
2022-08-21T07:54:00.229Z,19.67
2022-08-21T07:56:32.089Z,19.51
2022-08-21T07:58:59.825Z,19.37
2022-08-21T08:01:27.961Z,19.22
2022-08-21T08:03:57.275Z,19.11
2022-08-21T08:06:26.998Z,19.01
2022-08-21T08:08:54.940Z,18.94
2022-08-21T08:11:23.672Z,18.89
2022-08-21T08:13:53.741Z,18.86
2022-08-21T08:16:21.527Z,18.85
2022-08-21T08:18:49.780Z,18.83
2022-08-21T08:21:18.915Z,18.85
2022-08-21T08:23:46.633Z,18.88
2022-08-21T08:26:16.814Z,18.96
2022-08-21T08:28:45.025Z,19.08
2022-08-21T08:31:12.732Z,19.42
2022-08-21T08:33:41.038Z,20.99
2022-08-21T08:36:19.989Z,22.04
2022-08-21T08:38:49.292Z,21.77
2022-08-21T08:41:22.679Z,21.31
2022-08-21T08:43:56.046Z,20.88
2022-08-21T08:46:51.414Z,20.51
2022-08-21T08:49:24.319Z,20.83
2022-08-21T08:52:03.480Z,21.91
2022-08-21T08:55:08.828Z,21.64
2022-08-21T08:57:43.260Z,20.89
2022-08-21T09:00:14.923Z,20.52
2022-08-21T09:02:48.007Z,21.19
2022-08-21T09:05:29.754Z,22.45
2022-08-21T09:08:19.114Z,22.57
2022-08-21T09:11:05.809Z,21.84
2022-08-21T09:14:00.119Z,21.20
2022-08-21T09:17:00.280Z,21.32
2022-08-21T09:19:47.468Z,22.99
2022-08-21T09:23:02.391Z,23.83
2022-08-21T09:25:46.909Z,22.95
2022-08-21T09:28:15.922Z,22.20
2022-08-21T09:30:43.731Z,21.71
2022-08-21T09:33:14.641Z,21.33
2022-08-21T09:35:55.403Z,20.95
2022-08-21T09:38:32.844Z,20.67
2022-08-21T09:41:09.408Z,21.36
2022-08-21T09:43:39.499Z,22.29
2022-08-21T09:46:22.319Z,21.75
2022-08-21T09:48:55.234Z,21.15
2022-08-21T09:51:28.792Z,20.70
2022-08-21T09:54:08.487Z,20.34
2022-08-21T09:57:10.997Z,20.10
2022-08-21T09:59:40.241Z,19.91
2022-08-21T10:02:25.973Z,19.80
2022-08-21T10:05:04.377Z,20.51
2022-08-21T10:07:37.197Z,21.90
2022-08-21T10:10:28.108Z,21.48
2022-08-21T10:13:23.329Z,20.90
2022-08-21T10:16:31.135Z,20.44
2022-08-21T10:19:46.575Z,20.07
2022-08-21T10:22:37.841Z,19.75
2022-08-21T10:25:32.307Z,19.55
2022-08-21T10:28:18.554Z,19.44
2022-08-21T10:31:12.091Z,20.48
2022-08-21T10:34:23.712Z,21.28
2022-08-21T10:37:16.252Z,20.75
2022-08-21T10:40:21.841Z,20.35
2022-08-21T10:43:15.097Z,20.12
2022-08-21T10:46:02.341Z,19.93
2022-08-21T10:48:59.688Z,19.77
2022-08-21T10:51:48.589Z,19.66
2022-08-21T10:55:07.396Z,19.60
2022-08-21T10:58:18.021Z,19.58
2022-08-21T11:00:54.758Z,19.53
2022-08-21T11:03:29.769Z,19.55
2022-08-21T11:06:22.907Z,19.64
2022-08-21T11:09:07.249Z,19.69
2022-08-21T11:11:51.528Z,19.71
2022-08-21T11:14:58.885Z,19.74
2022-08-21T11:17:49.701Z,19.78
2022-08-21T11:20:31.524Z,19.81
2022-08-21T11:23:13.035Z,19.82
2022-08-21T11:26:11.980Z,19.81
2022-08-21T11:29:09.607Z,19.84
2022-08-21T11:32:12.397Z,19.90
2022-08-21T11:35:09.069Z,19.93
2022-08-21T11:37:58.131Z,19.96
2022-08-21T11:40:37.905Z,19.99
2022-08-21T11:43:45.089Z,20.01
2022-08-21T11:46:24.566Z,19.99
2022-08-21T11:49:43.694Z,19.92
2022-08-21T11:52:25.163Z,19.81
2022-08-21T11:55:07.494Z,19.78
2022-08-21T11:57:56.702Z,19.78
2022-08-21T12:00:32.110Z,19.77
2022-08-21T12:03:12.193Z,19.76
2022-08-21T12:05:54.631Z,19.74
2022-08-21T12:08:37.978Z,19.74
2022-08-21T12:11:17.833Z,19.82
2022-08-21T12:14:14.694Z,19.93
2022-08-21T12:16:49.968Z,20.08
2022-08-21T12:19:20.895Z,20.18
2022-08-21T12:22:10.230Z,20.29
2022-08-21T12:24:44.782Z,20.46
2022-08-21T12:27:21.030Z,20.56
2022-08-21T12:29:57.466Z,20.57
2022-08-21T12:32:44.779Z,20.56
2022-08-21T12:35:26.602Z,20.52
2022-08-21T12:38:13.929Z,20.54
2022-08-21T12:40:50.145Z,20.69
2022-08-21T12:43:29.049Z,20.94
2022-08-21T12:46:00.130Z,21.18
2022-08-21T12:48:48.930Z,21.47
2022-08-21T12:51:27.801Z,21.67
2022-08-21T12:53:59.229Z,21.76
2022-08-21T12:56:31.830Z,21.96
2022-08-21T12:59:08.885Z,22.21
2022-08-21T13:01:52.659Z,22.46
2022-08-21T13:04:37.653Z,22.54
2022-08-21T13:07:14.016Z,22.69
2022-08-21T13:10:05.556Z,22.90
2022-08-21T13:12:36.669Z,23.08
2022-08-21T13:15:09.095Z,23.06
2022-08-21T13:17:42.867Z,22.90
2022-08-21T13:20:28.371Z,22.73
2022-08-21T13:22:59.520Z,22.54
2022-08-21T13:25:36.039Z,22.36
2022-08-21T13:28:17.113Z,22.14
2022-08-21T13:30:48.916Z,21.92
2022-08-21T13:33:24.125Z,21.69
2022-08-21T13:36:12.547Z,21.47
2022-08-21T13:38:43.282Z,21.33
2022-08-21T13:41:26.801Z,21.20
2022-08-21T13:44:27.282Z,20.99
2022-08-21T13:46:55.941Z,20.72
2022-08-21T13:49:32.468Z,20.46
2022-08-21T13:52:00.249Z,20.01
2022-08-21T13:54:40.845Z,19.48
2022-08-21T13:57:34.296Z,18.49
2022-08-21T14:00:27.336Z,18.25
2022-08-21T14:03:05.945Z,19.32
2022-08-21T14:05:44.750Z,19.08
2022-08-21T14:08:30.513Z,18.10
2022-08-21T14:11:00.765Z,18.72
2022-08-21T14:13:45.229Z,19.78
2022-08-21T14:16:26.512Z,19.52
2022-08-21T14:19:20.795Z,18.57
2022-08-21T14:21:49.161Z,17.86
2022-08-21T14:24:22.829Z,17.87
2022-08-21T14:26:55.581Z,19.25
2022-08-21T14:29:28.573Z,19.94
2022-08-21T14:32:21.718Z,19.28
2022-08-21T14:34:54.542Z,18.38
2022-08-21T14:37:24.945Z,17.96
2022-08-21T14:39:53.396Z,19.02
2022-08-21T14:42:22.093Z,20.21
2022-08-21T14:44:50.018Z,20.05
2022-08-21T14:47:17.804Z,19.30
2022-08-21T14:49:45.565Z,18.71
2022-08-21T14:52:14.196Z,18.75
2022-08-21T14:54:41.913Z,20.26
2022-08-21T14:57:13.316Z,21.54
2022-08-21T14:59:41.467Z,21.44
2022-08-21T15:02:13.573Z,20.74
2022-08-21T15:04:42.893Z,20.14
2022-08-21T15:07:10.630Z,19.66
2022-08-21T15:09:38.883Z,19.35
2022-08-21T15:12:08.432Z,19.09
2022-08-21T15:14:41.296Z,18.93
2022-08-21T15:17:11.944Z,18.83
2022-08-21T15:19:40.709Z,19.31
2022-08-21T15:22:15.551Z,21.13
2022-08-21T15:24:46.784Z,22.32
2022-08-21T15:27:17.921Z,21.80
2022-08-21T15:29:46.320Z,21.05
2022-08-21T15:32:27.192Z,20.52
2022-08-21T15:34:56.913Z,20.17
2022-08-21T15:37:25.859Z,19.99
2022-08-21T15:39:54.892Z,19.89
2022-08-21T15:42:24.930Z,19.83
2022-08-21T15:44:55.260Z,19.76
2022-08-21T15:47:29.538Z,19.75
2022-08-21T15:49:57.434Z,19.81
2022-08-21T15:52:28.559Z,19.91
2022-08-21T15:54:57.024Z,19.98
2022-08-21T15:57:26.137Z,20.03
2022-08-21T16:00:07.625Z,20.06
2022-08-21T16:02:35.343Z,20.10
2022-08-21T16:05:03.514Z,20.13
2022-08-21T16:07:33.284Z,20.18
2022-08-21T16:10:01.008Z,20.26
2022-08-21T16:12:35.605Z,20.37
2022-08-21T16:15:08.571Z,20.47
2022-08-21T16:17:44.551Z,20.61
2022-08-21T16:20:14.613Z,20.72
2022-08-21T16:22:44.610Z,20.81
2022-08-21T16:25:16.173Z,20.84
2022-08-21T16:27:50.994Z,20.85
2022-08-21T16:30:21.059Z,20.88
2022-08-21T16:32:50.669Z,20.90
2022-08-21T16:35:20.644Z,20.77
2022-08-21T16:37:52.980Z,20.67
2022-08-21T16:40:27.740Z,20.71
2022-08-21T16:42:56.431Z,20.76
2022-08-21T16:45:24.140Z,20.83
2022-08-21T16:47:51.884Z,20.90
2022-08-21T16:50:26.116Z,20.88
2022-08-21T16:52:54.525Z,20.78
2022-08-21T16:55:22.266Z,20.80
2022-08-21T16:57:50.482Z,20.85
2022-08-21T17:00:18.378Z,20.91
2022-08-21T17:02:54.847Z,20.91
2022-08-21T17:05:25.637Z,20.80
2022-08-21T17:07:53.473Z,20.64
2022-08-21T17:10:21.800Z,20.49
2022-08-21T17:12:56.825Z,20.28
2022-08-21T17:15:38.265Z,20.06
2022-08-21T17:18:12.255Z,19.85
2022-08-21T17:20:41.168Z,20.18
2022-08-21T17:23:10.289Z,21.77
2022-08-21T17:25:41.653Z,23.05
2022-08-21T17:28:16.129Z,23.47
2022-08-21T17:30:46.230Z,22.65
2022-08-21T17:33:17.479Z,21.82
2022-08-21T17:35:45.781Z,21.16
2022-08-21T17:38:15.074Z,20.63
2022-08-21T17:40:43.903Z,20.14
2022-08-21T17:43:15.142Z,20.15
2022-08-21T17:45:45.033Z,21.60
2022-08-21T17:48:13.226Z,22.14
2022-08-21T17:50:41.252Z,21.29
2022-08-21T17:53:10.444Z,20.41
2022-08-21T17:55:38.470Z,19.72
2022-08-21T17:58:13.423Z,19.65
2022-08-21T18:00:42.666Z,21.02
2022-08-21T18:03:16.837Z,21.89
2022-08-21T18:05:47.980Z,21.08
2022-08-21T18:08:16.419Z,20.27
2022-08-21T18:10:48.511Z,19.59
2022-08-21T18:13:31.598Z,19.00
2022-08-21T18:16:02.394Z,18.52
2022-08-21T18:18:40.446Z,18.19
2022-08-21T18:21:09.484Z,18.34
2022-08-21T18:23:44.510Z,19.91
2022-08-21T18:26:21.202Z,21.22
2022-08-21T18:28:49.066Z,21.69
2022-08-21T18:31:16.810Z,20.77
2022-08-21T18:33:57.847Z,19.80
2022-08-21T18:36:29.805Z,19.06
2022-08-21T18:39:19.356Z,18.53
2022-08-21T18:41:48.574Z,19.29
2022-08-21T18:44:19.927Z,20.79
2022-08-21T18:46:58.163Z,21.32
2022-08-21T18:49:27.630Z,20.39
2022-08-21T18:51:57.385Z,19.40
2022-08-21T18:54:26.602Z,18.67
2022-08-21T18:56:55.279Z,18.12
2022-08-21T18:59:27.729Z,18.14
2022-08-21T19:01:57.087Z,19.68
2022-08-21T19:04:43.778Z,20.86
2022-08-21T19:07:14.492Z,21.22
2022-08-21T19:09:52.689Z,20.21
2022-08-21T19:12:30.428Z,19.02
2022-08-21T19:15:00.504Z,18.23
2022-08-21T19:17:29.832Z,17.98
2022-08-21T19:20:06.358Z,19.25
2022-08-21T19:22:34.256Z,20.54
2022-08-21T19:25:02.091Z,20.92
2022-08-21T19:27:29.883Z,20.00
2022-08-21T19:29:58.397Z,18.84
2022-08-21T19:32:28.399Z,17.92
2022-08-21T19:34:56.140Z,17.68
2022-08-21T19:37:25.938Z,18.87
2022-08-21T19:39:54.248Z,19.99
2022-08-21T19:42:22.553Z,20.32
2022-08-21T19:44:57.407Z,19.36
2022-08-21T19:47:29.367Z,18.30
2022-08-21T19:50:18.037Z,17.36
2022-08-21T19:52:51.410Z,17.20
2022-08-21T19:55:19.504Z,18.57
2022-08-21T19:57:47.279Z,19.74
2022-08-21T20:00:18.217Z,20.42
2022-08-21T20:05:39.645Z,18.84
2022-08-21T20:08:11.748Z,17.64
2022-08-21T20:10:51.326Z,16.64
2022-08-21T20:13:22.193Z,16.45
2022-08-21T20:15:51.969Z,17.78
2022-08-21T20:18:26.769Z,18.93
2022-08-21T20:20:58.689Z,19.42
2022-08-21T20:23:29.967Z,18.49
2022-08-21T20:26:14.831Z,17.25
2022-08-21T20:28:42.560Z,16.48
2022-08-21T20:31:14.586Z,16.34
2022-08-21T20:33:43.882Z,17.74
2022-08-21T20:36:12.649Z,18.95
2022-08-21T20:38:40.556Z,19.45
2022-08-21T20:41:16.287Z,18.57
2022-08-21T20:43:50.868Z,17.40
2022-08-21T20:46:26.421Z,16.58
2022-08-21T20:48:55.687Z,16.44
2022-08-21T20:51:44.926Z,17.84
2022-08-21T20:54:37.166Z,19.21
2022-08-21T20:57:29.902Z,19.42
2022-08-21T21:00:14.894Z,18.10
2022-08-21T21:03:30.190Z,17.01
2022-08-21T21:06:05.676Z,16.07
2022-08-21T21:09:16.422Z,15.97
2022-08-21T21:11:59.122Z,17.72
2022-08-21T21:14:46.219Z,18.85
2022-08-21T21:17:26.814Z,19.08
2022-08-21T21:20:16.692Z,17.83
2022-08-21T21:22:57.679Z,16.63
2022-08-21T21:25:42.542Z,16.31
2022-08-21T21:28:20.277Z,17.66
2022-08-21T21:30:55.576Z,18.66
2022-08-21T21:33:25.935Z,18.84
2022-08-21T21:36:20.519Z,17.69
2022-08-21T21:39:07.683Z,16.47
2022-08-21T21:42:03.724Z,15.62
2022-08-21T21:45:18.567Z,15.66
2022-08-21T21:48:47.595Z,17.55
2022-08-21T21:52:02.526Z,18.75
2022-08-21T21:54:57.457Z,18.22
2022-08-21T21:57:44.072Z,16.91
2022-08-21T22:00:26.357Z,15.92
2022-08-21T22:03:31.238Z,15.64
2022-08-21T22:06:10.597Z,17.24
2022-08-21T22:08:54.476Z,18.24
2022-08-21T22:11:44.781Z,18.43
2022-08-21T22:14:18.751Z,17.12
2022-08-21T22:17:30.425Z,15.89
2022-08-21T22:20:05.225Z,15.06
2022-08-21T22:22:36.305Z,14.49
2022-08-21T22:25:23.160Z,14.61
2022-08-21T22:28:04.711Z,16.46
2022-08-21T22:30:45.312Z,17.75
2022-08-21T22:33:27.913Z,18.15
2022-08-21T22:35:58.968Z,17.05
2022-08-21T22:38:26.601Z,16.03
2022-08-21T22:41:24.094Z,15.24
2022-08-21T22:44:01.980Z,15.25
2022-08-21T22:46:47.818Z,16.71
2022-08-21T22:49:46.902Z,17.83
2022-08-21T22:52:18.805Z,17.98
2022-08-21T22:54:47.666Z,16.79
2022-08-21T22:57:25.152Z,15.66
2022-08-21T23:00:14.067Z,14.87
2022-08-21T23:02:52.387Z,15.36
2022-08-21T23:05:30.580Z,16.79
2022-08-21T23:08:30.757Z,17.76
2022-08-21T23:11:26.365Z,17.89
2022-08-21T23:13:56.147Z,16.57
2022-08-21T23:16:38.817Z,15.69
2022-08-21T23:19:56.420Z,14.96
2022-08-21T23:22:47.253Z,15.08
2022-08-21T23:25:41.541Z,16.73
2022-08-21T23:28:36.990Z,17.86
2022-08-21T23:36:40.394Z,15.71
2022-08-21T23:39:50.228Z,14.82
2022-08-21T23:42:58.871Z,14.81
2022-08-21T23:45:39.063Z,16.51
2022-08-21T23:48:29.901Z,17.54
2022-08-21T23:51:11.984Z,17.69
2022-08-21T23:54:22.643Z,16.52
2022-08-21T23:57:31.284Z,15.33
